Pottstown, PA (19464)

2:00 AM EST on February 24, 2017 (GMT -0500)
Pottstown | | Change Station

Elev 262 ft 40.26 °N, 75.62 °W | Updated 2 seconds ago

Partly Cloudy
Partly Cloudy
55.1 °F
Feels Like 55.1 °F
N
3.0
Wind Variable Wind from ESE

Today
High -- | Low -- °F
--% Chance of Precip.
Yesterday
High -- | Low -- °F
Precip. -- in
Pressure 29.90 in
Visibility 10.0 miles
Clouds Clear
Dew Point 50 °F
Humidity 83%
Rainfall 0.00 in
Snow Depth Not available.
6:43 AM 5:48 PM
Waning Crescent, 6% visible
METAR KPTW 240654Z AUTO 17003KT 10SM CLR 14/10 A2991 RMK AO2 SLP125 T01390100 TSNO
Pressure 29.90 in
Visibility 10.0 miles
Clouds Clear
Dew Point 50 °F
Humidity 83%
Rainfall 0.00 in
Snow Depth Not available.
6:43 AM 5:48 PM
Waning Crescent, 6% visible
METAR KPTW 240654Z AUTO 17003KT 10SM CLR 14/10 A2991 RMK AO2 SLP125 T01390100 TSNO

Get Your Daily Forecast Email!

Thanks for signing up!

Be on the lookout for a verification email in your inbox.

You'll start receiving the daily forecast at 8 AM.

×

10-Day Weather Forecast

Almanac

Astronomy

Feb. 24, 2017 Rise Set
Actual Time
Civil Twilight
Nautical Twilight
Astronomical Twilight
Moon
Length of Visible Light
Length of Day
Tomorrow will be .
, % of the Moon is Illuminated

Today's Extremes

State Highs State Lows

Community

WunderPhotos

Upload Photos

1,962,540 photos uploaded!

WunderBlog® & News

Nearby

Air Quality

  Air Quality AQ Index Pollutant
Not available.

Snow Depth

Station Depth Elevation

Earthquake Activity

City Distance Mag. Time & Date
Minimum magnitude displayed is 2.5.

Coastal Water Temperatures

Place Temperature

Stations

Nearby Weather Stations

Station Location Temp. Windchill Dew Point Humidity Wind Precip. Elev Updated Type
                   

Watches & Warnings

There are currently no watches in effect.